OOCL Oakland — 3EKJ6 — position and weather

sailwx.info

Track history (hours):
 
Tides and Currents Weather Stations Pressure Air Temp Water Temp Dewpoint Dewpoint Depression Visibility Wind Speed Wind Dir Waves Ship Positions

OOCL Oakland

Last reported at 2017-Jan-21 01:15 UTC. Time now 2017-Jan-24 11:19 UTC.
Position N 24°12' E 118°18'.

Length 280 m; draft 11.6 m.

Type: Ship. MMSI: 372703235.

Date/timePositionNaut miles runAvg speedWind from/ knotsBaromVisibWave heightAir tempDewpointWater temp
2017-Jan-21 01:15N 24°12' E 118°18'912.4
2017-Jan-21 00:33N 24°18' E 118°12'1110.9
2017-Jan-20 23:33N 24°26' E 118°03'5 3.7
2017-Jan-20 22:15N 24°27' E 117°58'0 0.0
2017-Jan-20 21:29N 24°27' E 117°58'0 0.0
2017-Jan-20 20:33N 24°27' E 117°58'0 0.0
2017-Jan-20 19:32N 24°27' E 117°58'0 0.0
2017-Jan-20 18:11N 24°27' E 117°58'0 0.0
2017-Jan-20 17:30N 24°27' E 117°58'0 0.0
2017-Jan-20 16:24N 24°27' E 117°58'0 0.0
2017-Jan-20 15:33N 24°27' E 117°58'0 0.0
2017-Jan-20 14:29N 24°27' E 117°58'0 0.0
2017-Jan-20 13:33N 24°27' E 117°58'0 0.0
2017-Jan-20 12:30N 24°27' E 117°58'0 0.0
2017-Jan-20 11:26N 24°27' E 117°58'0 0.0
2017-Jan-20 09:11N 24°27' E 117°58'0 0.0
2017-Jan-20 05:30N 24°27' E 117°58'0 0.0
2017-Jan-20 04:30N 24°27' E 117°58'0 0.0
2017-Jan-20 03:26N 24°27' E 117°58'0 0.0
2017-Jan-20 02:32N 24°27' E 117°58'5 5.5
2017-Jan-20 01:33N 24°26' E 118°04'15112.6
2017-Jan-19 13:34N 22°46' E 120°07'1414.5
2017-Jan-19 12:33N 22°32' E 120°14'5 4.7
2017-Jan-19 11:33N 22°34' E 120°19'0 0.2
2017-Jan-19 10:11N 22°34' E 120°18'0 0.0
2017-Jan-19 09:29N 22°34' E 120°18'0 0.0
2017-Jan-19 08:29N 22°34' E 120°18'0 0.0
2017-Jan-19 07:29N 22°34' E 120°18'0 0.0
2017-Jan-19 06:29N 22°34' E 120°18'0 0.0
2017-Jan-19 05:29N 22°34' E 120°18'0 0.0
2017-Jan-19 04:29N 22°34' E 120°18'0 0.0
2017-Jan-19 03:23N 22°34' E 120°18'1 1.4
2017-Jan-19 02:34N 22°33' E 120°19'3 3.2
2017-Jan-19 01:34N 22°33' E 120°16'2 2.3
2017-Jan-19 00:34N 22°32' E 120°13'1110.6
2017-Jan-18 23:34N 22°29' E 120°02'7 7.2
2017-Jan-18 22:33N 22°22' E 120°01'  
Track history (hours):
 
Tides and Currents Weather Stations Pressure Air Temp Water Temp Dewpoint Dewpoint Depression Visibility Wind Speed Wind Dir Waves Ship Positions

OOCL Oakland

Last reported at 2017-Jan-21 01:15 UTC. Time now 2017-Jan-24 11:19 UTC.
Position N 24°12' E 118°18'.

Length 280 m; draft 11.6 m.

Type: Ship. MMSI: 372703235.

Date/timePositionNaut miles runAvg speedWind from/ knotsBaromVisibWave heightAir tempDewpointWater temp
2017-Jan-21 01:15N 24°12' E 118°18'912.4
2017-Jan-21 00:33N 24°18' E 118°12'1110.9
2017-Jan-20 23:33N 24°26' E 118°03'5 3.7
2017-Jan-20 22:15N 24°27' E 117°58'0 0.0
2017-Jan-20 21:29N 24°27' E 117°58'0 0.0
2017-Jan-20 20:33N 24°27' E 117°58'0 0.0
2017-Jan-20 19:32N 24°27' E 117°58'0 0.0
2017-Jan-20 18:11N 24°27' E 117°58'0 0.0
2017-Jan-20 17:30N 24°27' E 117°58'0 0.0
2017-Jan-20 16:24N 24°27' E 117°58'0 0.0
2017-Jan-20 15:33N 24°27' E 117°58'0 0.0
2017-Jan-20 14:29N 24°27' E 117°58'0 0.0
2017-Jan-20 13:33N 24°27' E 117°58'0 0.0
2017-Jan-20 12:30N 24°27' E 117°58'0 0.0
2017-Jan-20 11:26N 24°27' E 117°58'0 0.0
2017-Jan-20 09:11N 24°27' E 117°58'0 0.0
2017-Jan-20 05:30N 24°27' E 117°58'0 0.0
2017-Jan-20 04:30N 24°27' E 117°58'0 0.0
2017-Jan-20 03:26N 24°27' E 117°58'0 0.0
2017-Jan-20 02:32N 24°27' E 117°58'5 5.5
2017-Jan-20 01:33N 24°26' E 118°04'15112.6
2017-Jan-19 13:34N 22°46' E 120°07'1414.5
2017-Jan-19 12:33N 22°32' E 120°14'5 4.7
2017-Jan-19 11:33N 22°34' E 120°19'0 0.2
2017-Jan-19 10:11N 22°34' E 120°18'0 0.0
2017-Jan-19 09:29N 22°34' E 120°18'0 0.0
2017-Jan-19 08:29N 22°34' E 120°18'0 0.0
2017-Jan-19 07:29N 22°34' E 120°18'0 0.0
2017-Jan-19 06:29N 22°34' E 120°18'0 0.0
2017-Jan-19 05:29N 22°34' E 120°18'0 0.0
2017-Jan-19 04:29N 22°34' E 120°18'0 0.0
2017-Jan-19 03:23N 22°34' E 120°18'1 1.4
2017-Jan-19 02:34N 22°33' E 120°19'3 3.2
2017-Jan-19 01:34N 22°33' E 120°16'2 2.3
2017-Jan-19 00:34N 22°32' E 120°13'1110.6
2017-Jan-18 23:34N 22°29' E 120°02'7 7.2
2017-Jan-18 22:33N 22°22' E 120°01'  

Dump ship's entire track history